sensor_id;sensor_type;location;lat;lon;timestamp;P1;durP1;ratioP1;P2;durP2;ratioP2
8683;SDS011;4379;59.744;18.206;2023-06-19T00:02:11;8.10;;;7.60;;
8683;SDS011;4379;59.744;18.206;2023-06-19T00:04:38;8.48;;;7.88;;
8683;SDS011;4379;59.744;18.206;2023-06-19T00:07:06;8.75;;;8.05;;
8683;SDS011;4379;59.744;18.206;2023-06-19T00:09:33;7.80;;;7.30;;
8683;SDS011;4379;59.744;18.206;2023-06-19T00:12:00;7.47;;;6.95;;
8683;SDS011;4379;59.744;18.206;2023-06-19T00:14:28;8.07;;;7.45;;
8683;SDS011;4379;59.744;18.206;2023-06-19T00:16:55;8.45;;;7.72;;
8683;SDS011;4379;59.744;18.206;2023-06-19T00:19:23;8.65;;;7.95;;
8683;SDS011;4379;59.744;18.206;2023-06-19T00:21:50;7.68;;;7.18;;
8683;SDS011;4379;59.744;18.206;2023-06-19T00:24:17;7.75;;;7.25;;
8683;SDS011;4379;59.744;18.206;2023-06-19T00:26:44;8.32;;;7.65;;
8683;SDS011;4379;59.744;18.206;2023-06-19T00:29:12;7.63;;;7.10;;
8683;SDS011;4379;59.744;18.206;2023-06-19T00:31:40;8.30;;;7.70;;
8683;SDS011;4379;59.744;18.206;2023-06-19T00:34:07;8.05;;;7.55;;
8683;SDS011;4379;59.744;18.206;2023-06-19T00:36:34;8.05;;;7.55;;
8683;SDS011;4379;59.744;18.206;2023-06-19T00:39:07;8.57;;;7.88;;
8683;SDS011;4379;59.744;18.206;2023-06-19T00:41:35;7.82;;;7.15;;
8683;SDS011;4379;59.744;18.206;2023-06-19T00:44:05;7.57;;;7.00;;
8683;SDS011;4379;59.744;18.206;2023-06-19T00:46:33;8.07;;;7.47;;
8683;SDS011;4379;59.744;18.206;2023-06-19T00:49:04;7.82;;;7.35;;
8683;SDS011;4379;59.744;18.206;2023-06-19T00:51:31;8.30;;;7.60;;
8683;SDS011;4379;59.744;18.206;2023-06-19T00:53:59;8.30;;;7.70;;
8683;SDS011;4379;59.744;18.206;2023-06-19T00:56:26;8.15;;;7.68;;
8683;SDS011;4379;59.744;18.206;2023-06-19T00:58:54;9.38;;;8.40;;
8683;SDS011;4379;59.744;18.206;2023-06-19T01:01:22;9.35;;;8.55;;
8683;SDS011;4379;59.744;18.206;2023-06-19T01:03:52;8.48;;;7.88;;
8683;SDS011;4379;59.744;18.206;2023-06-19T01:06:21;8.45;;;7.95;;
8683;SDS011;4379;59.744;18.206;2023-06-19T01:09:02;8.75;;;8.05;;
8683;SDS011;4379;59.744;18.206;2023-06-19T01:11:33;8.10;;;7.50;;
8683;SDS011;4379;59.744;18.206;2023-06-19T01:14:08;8.30;;;7.70;;
8683;SDS011;4379;59.744;18.206;2023-06-19T01:16:40;8.48;;;7.88;;
8683;SDS011;4379;59.744;18.206;2023-06-19T01:19:09;9.38;;;8.63;;
8683;SDS011;4379;59.744;18.206;2023-06-19T01:21:42;7.97;;;7.47;;
8683;SDS011;4379;59.744;18.206;2023-06-19T01:24:10;8.57;;;7.97;;
8683;SDS011;4379;59.744;18.206;2023-06-19T01:26:37;8.57;;;7.93;;
8683;SDS011;4379;59.744;18.206;2023-06-19T01:29:05;8.65;;;8.05;;
8683;SDS011;4379;59.744;18.206;2023-06-19T01:31:37;9.27;;;8.43;;
8683;SDS011;4379;59.744;18.206;2023-06-19T01:34:08;8.93;;;8.23;;
8683;SDS011;4379;59.744;18.206;2023-06-19T01:36:36;9.02;;;8.35;;
8683;SDS011;4379;59.744;18.206;2023-06-19T01:39:05;9.15;;;8.55;;
8683;SDS011;4379;59.744;18.206;2023-06-19T01:41:33;9.50;;;8.82;;
8683;SDS011;4379;59.744;18.206;2023-06-19T01:44:01;8.48;;;8.02;;
8683;SDS011;4379;59.744;18.206;2023-06-19T01:46:29;8.77;;;8.18;;
8683;SDS011;4379;59.744;18.206;2023-06-19T01:48:56;8.70;;;8.20;;
8683;SDS011;4379;59.744;18.206;2023-06-19T01:51:23;9.65;;;8.95;;
8683;SDS011;4379;59.744;18.206;2023-06-19T01:53:51;8.23;;;7.72;;
8683;SDS011;4379;59.744;18.206;2023-06-19T01:56:18;8.63;;;8.13;;
8683;SDS011;4379;59.744;18.206;2023-06-19T01:58:45;8.68;;;8.27;;
8683;SDS011;4379;59.744;18.206;2023-06-19T02:01:13;8.93;;;8.32;;
8683;SDS011;4379;59.744;18.206;2023-06-19T02:03:40;8.30;;;7.90;;
8683;SDS011;4379;59.744;18.206;2023-06-19T02:06:08;8.82;;;8.32;;
8683;SDS011;4379;59.744;18.206;2023-06-19T02:08:35;9.13;;;8.63;;
8683;SDS011;4379;59.744;18.206;2023-06-19T02:11:03;9.30;;;8.65;;
8683;SDS011;4379;59.744;18.206;2023-06-19T02:13:30;10.38;;;9.75;;
8683;SDS011;4379;59.744;18.206;2023-06-19T02:15:57;10.32;;;9.63;;
8683;SDS011;4379;59.744;18.206;2023-06-19T02:18:24;10.55;;;9.95;;
8683;SDS011;4379;59.744;18.206;2023-06-19T02:20:52;9.75;;;9.15;;
8683;SDS011;4379;59.744;18.206;2023-06-19T02:23:19;10.35;;;9.55;;
8683;SDS011;4379;59.744;18.206;2023-06-19T02:25:47;10.73;;;10.07;;
8683;SDS011;4379;59.744;18.206;2023-06-19T02:28:14;10.73;;;10.02;;
8683;SDS011;4379;59.744;18.206;2023-06-19T02:30:42;10.93;;;9.93;;
8683;SDS011;4379;59.744;18.206;2023-06-19T02:33:09;11.75;;;10.90;;
8683;SDS011;4379;59.744;18.206;2023-06-19T02:35:37;11.23;;;10.35;;
8683;SDS011;4379;59.744;18.206;2023-06-19T02:38:04;11.05;;;10.35;;
8683;SDS011;4379;59.744;18.206;2023-06-19T02:40:31;11.35;;;10.65;;
8683;SDS011;4379;59.744;18.206;2023-06-19T02:42:58;11.63;;;10.77;;
8683;SDS011;4379;59.744;18.206;2023-06-19T02:45:26;11.00;;;10.25;;
8683;SDS011;4379;59.744;18.206;2023-06-19T02:47:53;10.75;;;10.05;;
8683;SDS011;4379;59.744;18.206;2023-06-19T02:50:20;12.32;;;10.35;;
8683;SDS011;4379;59.744;18.206;2023-06-19T02:52:48;10.32;;;9.70;;
8683;SDS011;4379;59.744;18.206;2023-06-19T02:55:15;11.48;;;10.77;;
8683;SDS011;4379;59.744;18.206;2023-06-19T02:57:43;10.98;;;10.27;;
8683;SDS011;4379;59.744;18.206;2023-06-19T03:00:11;11.13;;;10.52;;
8683;SDS011;4379;59.744;18.206;2023-06-19T03:02:39;11.45;;;10.68;;
8683;SDS011;4379;59.744;18.206;2023-06-19T03:05:11;11.30;;;10.60;;
8683;SDS011;4379;59.744;18.206;2023-06-19T03:07:41;11.45;;;10.88;;
8683;SDS011;4379;59.744;18.206;2023-06-19T03:10:09;11.48;;;10.68;;
8683;SDS011;4379;59.744;18.206;2023-06-19T03:12:36;11.43;;;10.80;;
8683;SDS011;4379;59.744;18.206;2023-06-19T03:15:04;11.50;;;10.82;;
8683;SDS011;4379;59.744;18.206;2023-06-19T03:17:32;11.35;;;10.75;;
8683;SDS011;4379;59.744;18.206;2023-06-19T03:19:59;12.63;;;11.73;;
8683;SDS011;4379;59.744;18.206;2023-06-19T03:22:26;12.40;;;11.70;;
8683;SDS011;4379;59.744;18.206;2023-06-19T03:24:53;12.05;;;11.35;;
8683;SDS011;4379;59.744;18.206;2023-06-19T03:27:24;11.95;;;11.15;;
8683;SDS011;4379;59.744;18.206;2023-06-19T03:29:53;11.93;;;11.32;;
8683;SDS011;4379;59.744;18.206;2023-06-19T03:32:20;11.95;;;11.30;;
8683;SDS011;4379;59.744;18.206;2023-06-19T03:34:47;11.30;;;10.70;;
8683;SDS011;4379;59.744;18.206;2023-06-19T03:37:15;12.48;;;11.68;;
8683;SDS011;4379;59.744;18.206;2023-06-19T03:39:42;13.55;;;12.55;;
8683;SDS011;4379;59.744;18.206;2023-06-19T03:42:10;13.65;;;12.85;;
8683;SDS011;4379;59.744;18.206;2023-06-19T03:44:37;13.07;;;12.30;;
8683;SDS011;4379;59.744;18.206;2023-06-19T03:47:05;13.75;;;12.85;;
8683;SDS011;4379;59.744;18.206;2023-06-19T03:49:32;12.73;;;12.02;;
8683;SDS011;4379;59.744;18.206;2023-06-19T03:52:00;13.55;;;12.50;;
8683;SDS011;4379;59.744;18.206;2023-06-19T03:54:27;14.10;;;13.20;;
8683;SDS011;4379;59.744;18.206;2023-06-19T03:56:54;14.70;;;13.65;;
8683;SDS011;4379;59.744;18.206;2023-06-19T03:59:22;14.77;;;13.88;;
8683;SDS011;4379;59.744;18.206;2023-06-19T04:01:49;13.68;;;12.77;;
8683;SDS011;4379;59.744;18.206;2023-06-19T04:04:16;13.13;;;12.43;;
8683;SDS011;4379;59.744;18.206;2023-06-19T04:06:44;14.10;;;13.27;;
8683;SDS011;4379;59.744;18.206;2023-06-19T04:09:13;13.25;;;12.45;;
8683;SDS011;4379;59.744;18.206;2023-06-19T04:11:40;13.40;;;12.63;;
8683;SDS011;4379;59.744;18.206;2023-06-19T04:14:07;12.63;;;12.02;;
8683;SDS011;4379;59.744;18.206;2023-06-19T04:16:35;12.90;;;12.10;;
8683;SDS011;4379;59.744;18.206;2023-06-19T04:19:02;13.88;;;12.95;;
8683;SDS011;4379;59.744;18.206;2023-06-19T04:21:29;12.52;;;11.93;;
8683;SDS011;4379;59.744;18.206;2023-06-19T04:23:57;12.68;;;11.98;;
8683;SDS011;4379;59.744;18.206;2023-06-19T04:26:24;12.73;;;12.02;;
8683;SDS011;4379;59.744;18.206;2023-06-19T04:28:52;12.73;;;11.95;;
8683;SDS011;4379;59.744;18.206;2023-06-19T04:31:19;12.70;;;11.90;;
8683;SDS011;4379;59.744;18.206;2023-06-19T04:33:46;12.82;;;12.02;;
8683;SDS011;4379;59.744;18.206;2023-06-19T04:36:14;12.88;;;12.25;;
8683;SDS011;4379;59.744;18.206;2023-06-19T04:38:41;13.27;;;12.40;;
8683;SDS011;4379;59.744;18.206;2023-06-19T04:41:08;13.23;;;12.48;;
8683;SDS011;4379;59.744;18.206;2023-06-19T04:43:36;13.38;;;12.57;;
8683;SDS011;4379;59.744;18.206;2023-06-19T04:46:03;12.35;;;11.75;;
8683;SDS011;4379;59.744;18.206;2023-06-19T04:48:30;12.85;;;12.15;;
8683;SDS011;4379;59.744;18.206;2023-06-19T04:50:58;13.30;;;12.52;;
8683;SDS011;4379;59.744;18.206;2023-06-19T04:53:27;13.23;;;12.52;;
8683;SDS011;4379;59.744;18.206;2023-06-19T04:55:55;12.68;;;12.07;;
8683;SDS011;4379;59.744;18.206;2023-06-19T04:58:22;13.25;;;12.43;;
8683;SDS011;4379;59.744;18.206;2023-06-19T05:00:50;12.85;;;12.15;;
8683;SDS011;4379;59.744;18.206;2023-06-19T05:03:19;13.02;;;12.38;;
8683;SDS011;4379;59.744;18.206;2023-06-19T05:05:46;12.88;;;12.23;;
8683;SDS011;4379;59.744;18.206;2023-06-19T05:08:13;12.60;;;11.90;;
8683;SDS011;4379;59.744;18.206;2023-06-19T05:10:41;13.35;;;12.70;;
8683;SDS011;4379;59.744;18.206;2023-06-19T05:13:11;13.93;;;13.00;;
8683;SDS011;4379;59.744;18.206;2023-06-19T05:15:39;14.45;;;13.55;;
8683;SDS011;4379;59.744;18.206;2023-06-19T05:18:06;13.98;;;13.18;;
8683;SDS011;4379;59.744;18.206;2023-06-19T05:20:33;14.32;;;13.43;;
8683;SDS011;4379;59.744;18.206;2023-06-19T05:23:01;13.55;;;12.85;;
8683;SDS011;4379;59.744;18.206;2023-06-19T05:25:28;14.10;;;13.30;;
8683;SDS011;4379;59.744;18.206;2023-06-19T05:27:55;13.35;;;12.63;;
8683;SDS011;4379;59.744;18.206;2023-06-19T05:30:23;12.32;;;11.73;;
8683;SDS011;4379;59.744;18.206;2023-06-19T05:32:53;13.13;;;12.43;;
8683;SDS011;4379;59.744;18.206;2023-06-19T05:35:21;12.18;;;11.57;;
8683;SDS011;4379;59.744;18.206;2023-06-19T05:37:49;12.05;;;11.45;;
8683;SDS011;4379;59.744;18.206;2023-06-19T05:40:16;12.93;;;12.13;;
8683;SDS011;4379;59.744;18.206;2023-06-19T05:42:45;12.80;;;12.10;;
8683;SDS011;4379;59.744;18.206;2023-06-19T05:45:13;12.85;;;12.15;;
8683;SDS011;4379;59.744;18.206;2023-06-19T05:47:40;13.10;;;12.38;;
8683;SDS011;4379;59.744;18.206;2023-06-19T05:50:08;13.00;;;12.30;;
8683;SDS011;4379;59.744;18.206;2023-06-19T05:52:36;13.45;;;12.65;;
8683;SDS011;4379;59.744;18.206;2023-06-19T05:55:03;13.30;;;12.50;;
8683;SDS011;4379;59.744;18.206;2023-06-19T05:57:31;12.07;;;11.43;;
8683;SDS011;4379;59.744;18.206;2023-06-19T06:00:00;12.57;;;11.98;;
8683;SDS011;4379;59.744;18.206;2023-06-19T06:02:27;11.82;;;11.23;;
8683;SDS011;4379;59.744;18.206;2023-06-19T06:04:55;12.80;;;12.05;;
8683;SDS011;4379;59.744;18.206;2023-06-19T06:07:23;12.90;;;12.10;;
8683;SDS011;4379;59.744;18.206;2023-06-19T06:09:51;12.85;;;12.15;;
8683;SDS011;4379;59.744;18.206;2023-06-19T06:12:18;12.52;;;11.82;;
8683;SDS011;4379;59.744;18.206;2023-06-19T06:14:46;12.07;;;11.48;;
8683;SDS011;4379;59.744;18.206;2023-06-19T06:17:13;12.30;;;11.70;;
8683;SDS011;4379;59.744;18.206;2023-06-19T06:19:40;10.93;;;10.43;;
8683;SDS011;4379;59.744;18.206;2023-06-19T06:22:08;11.43;;;10.82;;
8683;SDS011;4379;59.744;18.206;2023-06-19T06:24:35;12.00;;;11.43;;
8683;SDS011;4379;59.744;18.206;2023-06-19T06:27:03;11.68;;;11.07;;
8683;SDS011;4379;59.744;18.206;2023-06-19T06:29:32;11.65;;;11.05;;
8683;SDS011;4379;59.744;18.206;2023-06-19T06:32:03;10.98;;;10.48;;
8683;SDS011;4379;59.744;18.206;2023-06-19T06:34:34;12.20;;;11.60;;
8683;SDS011;4379;59.744;18.206;2023-06-19T06:37:01;10.70;;;10.20;;
8683;SDS011;4379;59.744;18.206;2023-06-19T06:39:32;10.73;;;10.05;;
8683;SDS011;4379;59.744;18.206;2023-06-19T06:41:59;10.13;;;9.73;;
8683;SDS011;4379;59.744;18.206;2023-06-19T06:44:27;11.10;;;10.40;;
8683;SDS011;4379;59.744;18.206;2023-06-19T06:46:54;11.02;;;10.45;;
8683;SDS011;4379;59.744;18.206;2023-06-19T06:49:22;10.90;;;10.23;;
8683;SDS011;4379;59.744;18.206;2023-06-19T06:51:49;9.85;;;9.38;;
8683;SDS011;4379;59.744;18.206;2023-06-19T06:54:16;10.20;;;9.60;;
8683;SDS011;4379;59.744;18.206;2023-06-19T06:56:44;9.75;;;9.25;;
8683;SDS011;4379;59.744;18.206;2023-06-19T06:59:14;9.80;;;9.20;;
8683;SDS011;4379;59.744;18.206;2023-06-19T07:01:42;9.43;;;8.93;;
8683;SDS011;4379;59.744;18.206;2023-06-19T07:04:09;9.93;;;9.43;;
8683;SDS011;4379;59.744;18.206;2023-06-19T07:06:37;9.85;;;9.30;;
8683;SDS011;4379;59.744;18.206;2023-06-19T07:09:04;9.48;;;8.98;;
8683;SDS011;4379;59.744;18.206;2023-06-19T07:11:32;9.45;;;9.05;;
8683;SDS011;4379;59.744;18.206;2023-06-19T07:13:59;9.32;;;8.88;;
8683;SDS011;4379;59.744;18.206;2023-06-19T07:16:27;9.02;;;8.57;;
8683;SDS011;4379;59.744;18.206;2023-06-19T07:18:55;9.23;;;8.73;;
8683;SDS011;4379;59.744;18.206;2023-06-19T07:21:23;8.90;;;8.32;;
8683;SDS011;4379;59.744;18.206;2023-06-19T07:23:51;8.43;;;8.02;;
8683;SDS011;4379;59.744;18.206;2023-06-19T07:26:19;8.65;;;8.25;;
8683;SDS011;4379;59.744;18.206;2023-06-19T07:28:46;8.73;;;8.32;;
8683;SDS011;4379;59.744;18.206;2023-06-19T07:31:13;8.82;;;8.43;;
8683;SDS011;4379;59.744;18.206;2023-06-19T07:33:41;8.98;;;8.48;;
8683;SDS011;4379;59.744;18.206;2023-06-19T07:36:08;9.00;;;8.50;;
8683;SDS011;4379;59.744;18.206;2023-06-19T07:38:41;9.07;;;8.68;;
8683;SDS011;4379;59.744;18.206;2023-06-19T07:41:09;9.10;;;8.70;;
8683;SDS011;4379;59.744;18.206;2023-06-19T07:43:38;9.02;;;8.52;;
8683;SDS011;4379;59.744;18.206;2023-06-19T07:46:05;8.50;;;8.10;;
8683;SDS011;4379;59.744;18.206;2023-06-19T07:48:33;9.57;;;8.95;;
8683;SDS011;4379;59.744;18.206;2023-06-19T07:51:00;8.20;;;7.90;;
8683;SDS011;4379;59.744;18.206;2023-06-19T07:53:27;8.30;;;7.90;;
8683;SDS011;4379;59.744;18.206;2023-06-19T07:55:55;8.80;;;8.30;;
8683;SDS011;4379;59.744;18.206;2023-06-19T07:58:22;7.93;;;7.63;;
8683;SDS011;4379;59.744;18.206;2023-06-19T08:00:49;7.88;;;7.45;;
8683;SDS011;4379;59.744;18.206;2023-06-19T08:03:17;7.97;;;7.45;;
8683;SDS011;4379;59.744;18.206;2023-06-19T08:05:44;8.38;;;7.80;;
8683;SDS011;4379;59.744;18.206;2023-06-19T08:08:12;7.82;;;7.43;;
8683;SDS011;4379;59.744;18.206;2023-06-19T08:10:40;7.45;;;7.15;;
8683;SDS011;4379;59.744;18.206;2023-06-19T08:13:07;8.27;;;7.05;;
8683;SDS011;4379;59.744;18.206;2023-06-19T08:15:35;7.40;;;7.00;;
8683;SDS011;4379;59.744;18.206;2023-06-19T08:18:02;6.88;;;6.47;;
8683;SDS011;4379;59.744;18.206;2023-06-19T08:20:30;7.07;;;6.68;;
8683;SDS011;4379;59.744;18.206;2023-06-19T08:22:57;6.90;;;6.50;;
8683;SDS011;4379;59.744;18.206;2023-06-19T08:25:25;6.18;;;5.75;;
8683;SDS011;4379;59.744;18.206;2023-06-19T08:27:52;6.68;;;6.20;;
8683;SDS011;4379;59.744;18.206;2023-06-19T08:30:19;6.53;;;6.03;;
8683;SDS011;4379;59.744;18.206;2023-06-19T08:32:47;6.20;;;5.80;;
8683;SDS011;4379;59.744;18.206;2023-06-19T08:35:15;5.95;;;5.65;;
8683;SDS011;4379;59.744;18.206;2023-06-19T08:37:43;6.07;;;5.60;;
8683;SDS011;4379;59.744;18.206;2023-06-19T08:40:11;5.68;;;5.38;;
8683;SDS011;4379;59.744;18.206;2023-06-19T08:42:39;6.50;;;6.10;;
8683;SDS011;4379;59.744;18.206;2023-06-19T08:45:07;6.30;;;5.70;;
8683;SDS011;4379;59.744;18.206;2023-06-19T08:47:35;5.82;;;5.43;;
8683;SDS011;4379;59.744;18.206;2023-06-19T08:50:03;6.18;;;5.68;;
8683;SDS011;4379;59.744;18.206;2023-06-19T08:52:31;5.82;;;5.47;;
8683;SDS011;4379;59.744;18.206;2023-06-19T08:54:59;6.35;;;5.85;;
8683;SDS011;4379;59.744;18.206;2023-06-19T08:57:39;5.30;;;5.00;;
8683;SDS011;4379;59.744;18.206;2023-06-19T09:00:08;5.97;;;5.47;;
8683;SDS011;4379;59.744;18.206;2023-06-19T09:02:48;6.20;;;5.70;;
8683;SDS011;4379;59.744;18.206;2023-06-19T09:05:34;5.88;;;5.47;;
8683;SDS011;4379;59.744;18.206;2023-06-19T09:08:13;5.95;;;5.55;;
8683;SDS011;4379;59.744;18.206;2023-06-19T09:10:43;5.05;;;4.75;;
8683;SDS011;4379;59.744;18.206;2023-06-19T09:13:20;5.13;;;4.72;;
8683;SDS011;4379;59.744;18.206;2023-06-19T09:15:47;5.45;;;4.97;;
8683;SDS011;4379;59.744;18.206;2023-06-19T09:18:24;5.50;;;5.20;;
8683;SDS011;4379;59.744;18.206;2023-06-19T09:20:52;4.90;;;4.60;;
8683;SDS011;4379;59.744;18.206;2023-06-19T09:23:20;5.30;;;5.00;;
8683;SDS011;4379;59.744;18.206;2023-06-19T09:25:49;5.45;;;4.95;;
8683;SDS011;4379;59.744;18.206;2023-06-19T09:28:19;4.88;;;4.47;;
8683;SDS011;4379;59.744;18.206;2023-06-19T09:31:05;5.32;;;4.93;;
8683;SDS011;4379;59.744;18.206;2023-06-19T09:33:33;5.30;;;4.90;;
8683;SDS011;4379;59.744;18.206;2023-06-19T09:36:02;5.00;;;4.57;;
8683;SDS011;4379;59.744;18.206;2023-06-19T09:38:35;5.15;;;4.75;;
8683;SDS011;4379;59.744;18.206;2023-06-19T09:41:07;6.82;;;4.78;;
8683;SDS011;4379;59.744;18.206;2023-06-19T09:43:42;5.47;;;5.18;;
8683;SDS011;4379;59.744;18.206;2023-06-19T09:46:11;5.00;;;4.38;;
8683;SDS011;4379;59.744;18.206;2023-06-19T09:48:43;4.72;;;4.43;;
8683;SDS011;4379;59.744;18.206;2023-06-19T09:54:12;5.78;;;5.28;;
8683;SDS011;4379;59.744;18.206;2023-06-19T09:56:42;5.28;;;4.78;;
8683;SDS011;4379;59.744;18.206;2023-06-19T09:59:10;5.28;;;4.95;;
8683;SDS011;4379;59.744;18.206;2023-06-19T10:01:39;4.93;;;4.63;;
8683;SDS011;4379;59.744;18.206;2023-06-19T10:04:09;5.20;;;4.70;;
8683;SDS011;4379;59.744;18.206;2023-06-19T10:06:46;6.03;;;5.63;;
8683;SDS011;4379;59.744;18.206;2023-06-19T10:09:15;5.50;;;5.10;;
8683;SDS011;4379;59.744;18.206;2023-06-19T10:11:45;6.20;;;5.57;;
8683;SDS011;4379;59.744;18.206;2023-06-19T10:14:14;5.45;;;5.03;;
8683;SDS011;4379;59.744;18.206;2023-06-19T10:16:44;5.55;;;5.13;;
8683;SDS011;4379;59.744;18.206;2023-06-19T10:19:15;5.45;;;4.95;;
8683;SDS011;4379;59.744;18.206;2023-06-19T10:21:48;7.53;;;5.50;;
8683;SDS011;4379;59.744;18.206;2023-06-19T10:24:18;5.45;;;4.97;;
8683;SDS011;4379;59.744;18.206;2023-06-19T10:26:57;6.13;;;5.55;;
8683;SDS011;4379;59.744;18.206;2023-06-19T10:29:26;5.82;;;5.43;;
8683;SDS011;4379;59.744;18.206;2023-06-19T10:32:06;7.25;;;5.50;;
8683;SDS011;4379;59.744;18.206;2023-06-19T10:34:34;6.07;;;5.68;;
8683;SDS011;4379;59.744;18.206;2023-06-19T10:37:02;6.00;;;5.53;;
8683;SDS011;4379;59.744;18.206;2023-06-19T10:39:30;6.57;;;6.00;;
8683;SDS011;4379;59.744;18.206;2023-06-19T10:41:57;6.45;;;6.00;;
8683;SDS011;4379;59.744;18.206;2023-06-19T10:44:25;6.30;;;5.70;;
8683;SDS011;4379;59.744;18.206;2023-06-19T10:46:53;6.65;;;6.25;;
8683;SDS011;4379;59.744;18.206;2023-06-19T10:49:21;6.53;;;5.97;;
8683;SDS011;4379;59.744;18.206;2023-06-19T10:51:48;6.57;;;5.70;;
8683;SDS011;4379;59.744;18.206;2023-06-19T10:54:17;6.40;;;5.93;;
8683;SDS011;4379;59.744;18.206;2023-06-19T10:56:45;6.28;;;5.78;;
8683;SDS011;4379;59.744;18.206;2023-06-19T10:59:15;5.90;;;5.50;;
8683;SDS011;4379;59.744;18.206;2023-06-19T11:01:47;6.53;;;6.13;;
8683;SDS011;4379;59.744;18.206;2023-06-19T11:04:17;6.85;;;6.45;;
8683;SDS011;4379;59.744;18.206;2023-06-19T11:06:44;6.60;;;6.10;;
8683;SDS011;4379;59.744;18.206;2023-06-19T11:09:14;7.32;;;6.82;;
8683;SDS011;4379;59.744;18.206;2023-06-19T11:14:10;6.43;;;5.95;;
8683;SDS011;4379;59.744;18.206;2023-06-19T11:16:42;7.30;;;6.70;;
8683;SDS011;4379;59.744;18.206;2023-06-19T11:19:16;7.10;;;6.70;;
8683;SDS011;4379;59.744;18.206;2023-06-19T11:21:46;7.00;;;6.60;;
8683;SDS011;4379;59.744;18.206;2023-06-19T11:24:15;6.72;;;6.32;;
8683;SDS011;4379;59.744;18.206;2023-06-19T11:26:44;7.18;;;6.78;;
8683;SDS011;4379;59.744;18.206;2023-06-19T11:29:22;7.22;;;6.63;;
8683;SDS011;4379;59.744;18.206;2023-06-19T11:31:53;7.10;;;6.70;;
8683;SDS011;4379;59.744;18.206;2023-06-19T11:34:31;7.30;;;6.60;;
8683;SDS011;4379;59.744;18.206;2023-06-19T11:37:00;7.10;;;6.60;;
8683;SDS011;4379;59.744;18.206;2023-06-19T11:39:27;7.72;;;7.13;;
8683;SDS011;4379;59.744;18.206;2023-06-19T11:41:57;6.95;;;6.55;;
8683;SDS011;4379;59.744;18.206;2023-06-19T11:44:26;7.10;;;6.70;;
8683;SDS011;4379;59.744;18.206;2023-06-19T11:46:56;6.82;;;6.43;;
8683;SDS011;4379;59.744;18.206;2023-06-19T11:49:25;7.07;;;6.50;;
8683;SDS011;4379;59.744;18.206;2023-06-19T11:51:52;6.68;;;6.28;;
8683;SDS011;4379;59.744;18.206;2023-06-19T11:54:20;6.75;;;6.18;;
8683;SDS011;4379;59.744;18.206;2023-06-19T11:56:47;7.15;;;6.65;;
8683;SDS011;4379;59.744;18.206;2023-06-19T11:59:15;6.80;;;6.40;;
8683;SDS011;4379;59.744;18.206;2023-06-19T12:01:42;6.95;;;6.55;;
8683;SDS011;4379;59.744;18.206;2023-06-19T12:04:09;7.10;;;6.55;;
8683;SDS011;4379;59.744;18.206;2023-06-19T12:06:37;7.10;;;6.63;;
8683;SDS011;4379;59.744;18.206;2023-06-19T12:09:05;6.70;;;6.30;;
8683;SDS011;4379;59.744;18.206;2023-06-19T12:11:32;7.18;;;6.57;;
8683;SDS011;4379;59.744;18.206;2023-06-19T12:14:00;6.95;;;6.45;;
8683;SDS011;4379;59.744;18.206;2023-06-19T12:16:27;7.13;;;6.53;;
8683;SDS011;4379;59.744;18.206;2023-06-19T12:18:55;6.65;;;6.25;;
8683;SDS011;4379;59.744;18.206;2023-06-19T12:21:22;6.45;;;6.03;;
8683;SDS011;4379;59.744;18.206;2023-06-19T12:24:04;7.00;;;6.50;;
8683;SDS011;4379;59.744;18.206;2023-06-19T12:26:32;6.70;;;6.30;;
8683;SDS011;4379;59.744;18.206;2023-06-19T12:29:04;7.22;;;6.72;;
8683;SDS011;4379;59.744;18.206;2023-06-19T12:31:32;6.20;;;5.82;;
8683;SDS011;4379;59.744;18.206;2023-06-19T12:34:00;6.35;;;5.95;;
8683;SDS011;4379;59.744;18.206;2023-06-19T12:36:48;6.90;;;6.30;;
8683;SDS011;4379;59.744;18.206;2023-06-19T12:39:15;7.47;;;6.80;;
8683;SDS011;4379;59.744;18.206;2023-06-19T12:41:43;6.95;;;6.20;;
8683;SDS011;4379;59.744;18.206;2023-06-19T12:44:11;7.32;;;6.70;;
8683;SDS011;4379;59.744;18.206;2023-06-19T12:46:39;7.30;;;6.65;;
8683;SDS011;4379;59.744;18.206;2023-06-19T12:49:06;6.28;;;5.88;;
8683;SDS011;4379;59.744;18.206;2023-06-19T12:51:34;7.70;;;6.72;;
8683;SDS011;4379;59.744;18.206;2023-06-19T12:54:01;6.15;;;5.72;;
8683;SDS011;4379;59.744;18.206;2023-06-19T12:56:29;6.82;;;6.28;;
8683;SDS011;4379;59.744;18.206;2023-06-19T12:58:56;6.75;;;6.35;;
8683;SDS011;4379;59.744;18.206;2023-06-19T13:01:24;7.13;;;6.50;;
8683;SDS011;4379;59.744;18.206;2023-06-19T13:03:51;7.00;;;6.60;;
8683;SDS011;4379;59.744;18.206;2023-06-19T13:06:19;6.82;;;6.43;;
8683;SDS011;4379;59.744;18.206;2023-06-19T13:08:46;7.25;;;6.70;;
8683;SDS011;4379;59.744;18.206;2023-06-19T13:11:13;7.15;;;6.65;;
8683;SDS011;4379;59.744;18.206;2023-06-19T13:13:40;6.88;;;6.47;;
8683;SDS011;4379;59.744;18.206;2023-06-19T13:16:08;7.47;;;6.85;;
8683;SDS011;4379;59.744;18.206;2023-06-19T13:18:40;7.43;;;6.82;;
8683;SDS011;4379;59.744;18.206;2023-06-19T13:21:07;7.43;;;6.80;;
8683;SDS011;4379;59.744;18.206;2023-06-19T13:23:35;6.80;;;6.35;;
8683;SDS011;4379;59.744;18.206;2023-06-19T13:26:02;6.65;;;6.25;;
8683;SDS011;4379;59.744;18.206;2023-06-19T13:28:29;7.07;;;6.63;;
8683;SDS011;4379;59.744;18.206;2023-06-19T13:30:57;7.38;;;6.68;;
8683;SDS011;4379;59.744;18.206;2023-06-19T13:33:24;6.63;;;6.05;;
8683;SDS011;4379;59.744;18.206;2023-06-19T13:35:52;7.13;;;6.10;;
8683;SDS011;4379;59.744;18.206;2023-06-19T13:38:19;7.22;;;6.78;;
8683;SDS011;4379;59.744;18.206;2023-06-19T13:40:47;6.80;;;6.30;;
8683;SDS011;4379;59.744;18.206;2023-06-19T13:43:15;6.45;;;6.05;;
8683;SDS011;4379;59.744;18.206;2023-06-19T13:45:43;6.55;;;5.95;;
8683;SDS011;4379;59.744;18.206;2023-06-19T13:48:10;7.35;;;6.60;;
8683;SDS011;4379;59.744;18.206;2023-06-19T13:50:38;6.38;;;5.97;;
8683;SDS011;4379;59.744;18.206;2023-06-19T13:53:05;6.13;;;5.78;;
8683;SDS011;4379;59.744;18.206;2023-06-19T13:55:33;6.72;;;6.32;;
8683;SDS011;4379;59.744;18.206;2023-06-19T13:58:00;6.43;;;5.93;;
8683;SDS011;4379;59.744;18.206;2023-06-19T14:00:28;6.53;;;6.00;;
8683;SDS011;4379;59.744;18.206;2023-06-19T14:02:55;6.57;;;6.13;;
8683;SDS011;4379;59.744;18.206;2023-06-19T14:05:22;6.88;;;6.28;;
8683;SDS011;4379;59.744;18.206;2023-06-19T14:07:50;6.03;;;5.72;;
8683;SDS011;4379;59.744;18.206;2023-06-19T14:10:18;6.38;;;5.90;;
8683;SDS011;4379;59.744;18.206;2023-06-19T14:12:45;6.43;;;5.93;;
8683;SDS011;4379;59.744;18.206;2023-06-19T14:15:12;6.50;;;6.00;;
8683;SDS011;4379;59.744;18.206;2023-06-19T14:17:40;6.43;;;5.45;;
8683;SDS011;4379;59.744;18.206;2023-06-19T14:20:10;6.13;;;5.80;;
8683;SDS011;4379;59.744;18.206;2023-06-19T14:22:37;6.45;;;6.00;;
8683;SDS011;4379;59.744;18.206;2023-06-19T14:25:05;6.45;;;5.90;;
8683;SDS011;4379;59.744;18.206;2023-06-19T14:27:32;6.53;;;6.03;;
8683;SDS011;4379;59.744;18.206;2023-06-19T14:30:00;6.10;;;5.60;;
8683;SDS011;4379;59.744;18.206;2023-06-19T14:32:27;5.80;;;5.30;;
8683;SDS011;4379;59.744;18.206;2023-06-19T14:34:55;5.63;;;5.22;;
8683;SDS011;4379;59.744;18.206;2023-06-19T14:37:22;5.68;;;5.18;;
8683;SDS011;4379;59.744;18.206;2023-06-19T14:39:49;6.95;;;6.18;;
8683;SDS011;4379;59.744;18.206;2023-06-19T14:42:17;5.93;;;5.50;;
8683;SDS011;4379;59.744;18.206;2023-06-19T14:44:44;5.28;;;5.03;;
8683;SDS011;4379;59.744;18.206;2023-06-19T14:47:11;6.28;;;5.82;;
8683;SDS011;4379;59.744;18.206;2023-06-19T14:49:39;6.03;;;5.63;;
8683;SDS011;4379;59.744;18.206;2023-06-19T14:52:06;6.13;;;5.50;;
8683;SDS011;4379;59.744;18.206;2023-06-19T14:54:34;6.25;;;5.85;;
8683;SDS011;4379;59.744;18.206;2023-06-19T14:57:01;6.85;;;5.90;;
8683;SDS011;4379;59.744;18.206;2023-06-19T14:59:29;6.32;;;5.80;;
8683;SDS011;4379;59.744;18.206;2023-06-19T15:01:57;6.90;;;6.50;;
8683;SDS011;4379;59.744;18.206;2023-06-19T15:04:25;6.50;;;6.00;;
8683;SDS011;4379;59.744;18.206;2023-06-19T15:06:52;6.03;;;5.60;;